Time;durP1;ratioP1;P1;durP2;ratioP2;P2;SDS_P1;SDS_P2;PMS_P1;PMS_P2;Temp;Humidity;BMP_temperature;BMP_pressure;BME280_temperature;BME280_humidity;BME280_pressure;Samples;Min_cycle;Max_cycle;Signal;HPM_P1;HPM_P2
2021/09/20 00:00:57;;;;;;;;;;;;;;;12.66;72.84;101792.19;5055298;28;19928;-34
2021/09/20 00:03:22;;;;;;;;;;;;;;;12.65;73.00;101785.09;5056298;28;19913;-34
2021/09/20 00:05:47;;;;;;;;;;;;;;;12.67;72.72;101795.72;5056490;28;20394;-34
2021/09/20 00:08:12;;;;;;;;;;;;;;;12.67;72.95;101803.84;5055861;28;20411;-34
2021/09/20 00:10:37;;;;;;;;;;;;;;;12.63;72.71;101798.88;5055891;28;19908;-34
2021/09/20 00:13:03;;;;;;;;;;;;;;;12.57;73.28;101796.22;5055971;28;19908;-34
2021/09/20 00:15:28;;;;;;;;;;;;;;;12.60;73.08;101795.78;5056585;28;19916;-34
2021/09/20 00:17:53;;;;;;;;;;;;;;;12.60;73.49;101804.75;5056389;28;20011;-34
2021/09/20 00:20:18;;;;;;;;;;;;;;;12.62;73.35;101799.91;5055938;28;19951;-35
2021/09/20 00:22:44;;;;;;;;;;;;;;;12.66;73.04;101797.59;5056252;28;19912;-35
2021/09/20 00:25:09;;;;;;;;;;;;;;;12.58;73.57;101803.28;5055830;28;19960;-34
2021/09/20 00:27:35;;;;;;;;;;;;;;;12.61;73.10;101792.84;5056063;28;19916;-34
2021/09/20 00:30:00;;;;;;;;;;;;;;;12.57;73.46;101804.34;5056058;28;20435;-34
2021/09/20 00:32:25;;;;;;;;;;;;;;;12.55;73.35;101795.63;5056360;28;19915;-34
2021/09/20 00:34:51;;;;;;;;;;;;;;;12.49;73.68;101797.34;5055663;28;19915;-34
2021/09/20 00:37:17;;;;;;;;;;;;;;;12.38;73.81;101798.84;5056521;28;20007;-34
2021/09/20 00:39:43;;;;;;;;;;;;;;;12.35;73.91;101793.88;5055503;28;19917;-34
2021/09/20 00:42:08;;;;;;;;;;;;;;;12.33;74.01;101797.84;5055781;28;19915;-34
2021/09/20 00:44:33;;;;;;;;;;;;;;;12.32;73.85;101804.34;5055497;28;20246;-34
2021/09/20 00:46:59;;;;;;;;;;;;;;;12.23;74.57;101800.22;5055234;28;19915;-34
2021/09/20 00:49:24;;;;;;;;;;;;;;;12.07;74.75;101794.28;5055304;28;19909;-34
2021/09/20 00:51:49;;;;;;;;;;;;;;;12.11;74.34;101797.38;5056151;28;19920;-34
2021/09/20 00:54:15;;;;;;;;;;;;;;;12.17;74.22;101801.09;5053930;28;19962;-35
2021/09/20 00:56:40;;;;;;;;;;;;;;;12.21;74.06;101799.63;5055184;28;19908;-35
2021/09/20 00:59:05;;;;;;;;;;;;;;;12.23;74.16;101808.34;5055572;28;19916;-34
2021/09/20 01:01:32;;;;;;;;;;;;;;;12.13;73.88;101810.72;5056108;28;20318;-34
2021/09/20 01:03:57;;;;;;;;;;;;;;;12.11;74.36;101800.91;5055874;28;20407;-34
2021/09/20 01:06:22;;;;;;;;;;;;;;;12.08;74.24;101804.06;5055330;28;20065;-34
2021/09/20 01:08:48;;;;;;;;;;;;;;;11.98;74.78;101801.00;5054975;28;19909;-35
2021/09/20 01:11:13;;;;;;;;;;;;;;;11.92;75.02;101798.31;5055045;28;19909;-34
2021/09/20 01:13:38;;;;;;;;;;;;;;;11.83;75.69;101803.16;5054682;28;19908;-34
2021/09/20 01:16:04;;;;;;;;;;;;;;;11.85;75.34;101799.16;5054904;28;19920;-34
2021/09/20 01:18:29;;;;;;;;;;;;;;;11.87;75.39;101800.84;5054461;28;20323;-34
2021/09/20 01:20:54;;;;;;;;;;;;;;;11.91;75.37;101802.91;5055325;28;19909;-34
2021/09/20 01:23:20;;;;;;;;;;;;;;;11.79;76.01;101804.59;5054614;28;19908;-34
2021/09/20 01:25:45;;;;;;;;;;;;;;;11.81;76.06;101797.09;5054978;28;19915;-34
2021/09/20 01:28:10;;;;;;;;;;;;;;;11.81;76.06;101799.81;5055238;28;19943;-34
2021/09/20 01:30:36;;;;;;;;;;;;;;;11.80;76.03;101801.66;5054865;28;19962;-34
2021/09/20 01:33:01;;;;;;;;;;;;;;;11.83;76.03;101801.28;5054312;28;19991;-34
2021/09/20 01:35:27;;;;;;;;;;;;;;;11.75;76.50;101797.94;5054418;28;19963;-34
2021/09/20 01:37:53;;;;;;;;;;;;;;;11.79;75.97;101799.19;5054678;28;19959;-34
2021/09/20 01:40:18;;;;;;;;;;;;;;;11.86;75.28;101800.03;5054680;28;20410;-34
2021/09/20 01:42:43;;;;;;;;;;;;;;;11.96;75.33;101802.28;5054362;28;19908;-34
2021/09/20 01:45:10;;;;;;;;;;;;;;;12.00;74.85;101803.47;5054305;28;19908;-35
2021/09/20 01:47:36;;;;;;;;;;;;;;;11.93;75.20;101806.22;5054901;28;19908;-35
2021/09/20 01:50:01;;;;;;;;;;;;;;;11.97;74.89;101804.75;5054036;28;19995;-35
2021/09/20 01:52:27;;;;;;;;;;;;;;;12.02;74.68;101804.09;5054766;28;19935;-35
2021/09/20 01:54:52;;;;;;;;;;;;;;;12.07;74.92;101804.28;5054076;28;19932;-35
2021/09/20 01:57:22;;;;;;;;;;;;;;;12.01;74.46;101807.88;5054763;28;20258;-35
2021/09/20 01:59:47;;;;;;;;;;;;;;;11.97;74.34;101812.88;5053724;28;19935;-35
2021/09/20 02:02:13;;;;;;;;;;;;;;;12.01;74.50;101818.72;5053728;28;19944;-35
2021/09/20 02:04:38;;;;;;;;;;;;;;;12.05;74.32;101814.50;5053743;28;19908;-35
2021/09/20 02:07:03;;;;;;;;;;;;;;;12.08;74.25;101820.31;5053724;28;19932;-35
2021/09/20 02:09:28;;;;;;;;;;;;;;;12.06;74.04;101822.44;5053814;28;19908;-35
2021/09/20 02:11:53;;;;;;;;;;;;;;;12.04;73.96;101819.09;5053787;28;19908;-35
2021/09/20 02:14:19;;;;;;;;;;;;;;;11.94;74.08;101818.72;5053770;28;19909;-35
2021/09/20 02:16:44;;;;;;;;;;;;;;;11.89;74.28;101818.53;5054703;28;19931;-35
2021/09/20 02:19:09;;;;;;;;;;;;;;;11.85;74.07;101817.31;5053716;28;20356;-35
2021/09/20 02:21:34;;;;;;;;;;;;;;;11.84;74.16;101818.38;5054329;28;19944;-35
2021/09/20 02:24:00;;;;;;;;;;;;;;;11.74;74.49;101817.97;5053434;28;19908;-35
2021/09/20 02:26:25;;;;;;;;;;;;;;;11.74;74.43;101820.66;5054029;28;19924;-35
2021/09/20 02:28:50;;;;;;;;;;;;;;;11.71;74.17;101821.09;5053970;28;19912;-35
2021/09/20 02:31:15;;;;;;;;;;;;;;;11.69;74.27;101823.19;5053387;28;19954;-35
2021/09/20 02:33:41;;;;;;;;;;;;;;;11.58;74.97;101814.69;5054054;28;19908;-35
2021/09/20 02:36:07;;;;;;;;;;;;;;;11.47;75.34;101819.94;5054371;28;19931;-35
2021/09/20 02:38:32;;;;;;;;;;;;;;;11.30;75.83;101831.22;5053463;28;19930;-35
2021/09/20 02:40:58;;;;;;;;;;;;;;;11.33;75.55;101822.69;5054248;28;19919;-35
2021/09/20 02:43:23;;;;;;;;;;;;;;;11.32;75.49;101823.75;5053690;28;19908;-35
2021/09/20 02:45:49;;;;;;;;;;;;;;;11.26;76.23;101823.72;5053209;28;19944;-35
2021/09/20 02:48:14;;;;;;;;;;;;;;;11.22;75.92;101826.03;5053432;28;19909;-35
2021/09/20 02:50:39;;;;;;;;;;;;;;;11.05;75.95;101822.94;5053430;28;19999;-35
2021/09/20 02:53:05;;;;;;;;;;;;;;;11.05;76.39;101824.81;5053539;28;19908;-35
2021/09/20 02:55:31;;;;;;;;;;;;;;;11.07;76.15;101826.25;5054202;28;19908;-35
2021/09/20 02:57:56;;;;;;;;;;;;;;;11.09;75.93;101824.19;5053084;28;19908;-35
2021/09/20 03:00:21;;;;;;;;;;;;;;;11.14;75.59;101828.16;5053043;28;19909;-35
2021/09/20 03:02:47;;;;;;;;;;;;;;;11.15;75.66;101838.75;5053333;28;19919;-35
2021/09/20 03:05:12;;;;;;;;;;;;;;;11.15;75.40;101840.63;5068634;28;19915;-35
2021/09/20 03:07:37;;;;;;;;;;;;;;;11.17;75.23;101833.13;5053481;28;19912;-35
2021/09/20 03:10:03;;;;;;;;;;;;;;;11.18;75.17;101837.50;5052832;28;19908;-35
2021/09/20 03:12:28;;;;;;;;;;;;;;;11.16;75.31;101845.00;5053506;28;19909;-35
2021/09/20 03:14:53;;;;;;;;;;;;;;;11.11;75.39;101839.38;5052786;28;19948;-35
2021/09/20 03:17:19;;;;;;;;;;;;;;;11.11;74.97;101850.22;5055939;28;19909;-35
2021/09/20 03:19:46;;;;;;;;;;;;;;;11.10;75.20;101849.38;5056730;28;20429;-35
2021/09/20 03:22:11;;;;;;;;;;;;;;;11.07;75.04;101853.31;5057230;28;19971;-35
2021/09/20 03:24:36;;;;;;;;;;;;;;;11.04;75.09;101859.19;5057268;28;20015;-35
2021/09/20 03:27:02;;;;;;;;;;;;;;;11.05;74.83;101854.59;5057424;28;19979;-35
2021/09/20 03:29:27;;;;;;;;;;;;;;;11.04;74.92;101863.75;5057278;28;19919;-35
2021/09/20 03:31:52;;;;;;;;;;;;;;;11.05;74.95;101855.41;5057298;28;19909;-35
2021/09/20 03:34:17;;;;;;;;;;;;;;;10.98;75.50;101856.47;5056384;28;20280;-35
2021/09/20 03:36:43;;;;;;;;;;;;;;;10.96;75.07;101859.38;5056978;28;20237;-35
2021/09/20 03:39:08;;;;;;;;;;;;;;;10.97;75.07;101862.91;5056350;28;19963;-35
2021/09/20 03:41:33;;;;;;;;;;;;;;;10.99;74.97;101867.09;5056825;28;19908;-35
2021/09/20 03:43:59;;;;;;;;;;;;;;;10.98;75.10;101868.16;5056495;28;19909;-34
2021/09/20 03:46:24;;;;;;;;;;;;;;;10.93;75.08;101867.06;5056485;28;19962;-35
2021/09/20 03:48:50;;;;;;;;;;;;;;;10.93;74.88;101870.63;5056033;28;19912;-35
2021/09/20 03:51:15;;;;;;;;;;;;;;;10.94;75.08;101866.88;5056002;28;19943;-35
2021/09/20 03:53:40;;;;;;;;;;;;;;;10.94;74.65;101866.88;5055992;28;19986;-35
2021/09/20 03:56:05;;;;;;;;;;;;;;;10.91;75.30;101866.47;5056417;28;19915;-35
2021/09/20 03:58:31;;;;;;;;;;;;;;;10.84;75.89;101861.06;5056679;28;19913;-35
2021/09/20 04:00:56;;;;;;;;;;;;;;;10.80;75.26;101867.94;5056243;28;20353;-35
2021/09/20 04:03:22;;;;;;;;;;;;;;;10.76;75.22;101874.78;5056107;28;19916;-35
2021/09/20 04:05:47;;;;;;;;;;;;;;;10.68;75.89;101874.97;5056464;28;19913;-35
2021/09/20 04:08:15;;;;;;;;;;;;;;;10.58;76.47;101873.50;5055996;28;19908;-35
2021/09/20 04:10:40;;;;;;;;;;;;;;;10.52;76.23;101874.34;5056316;28;20276;-35
2021/09/20 04:13:05;;;;;;;;;;;;;;;10.46;75.99;101869.75;5055913;28;19909;-35
2021/09/20 04:15:31;;;;;;;;;;;;;;;10.45;76.09;101872.69;5056481;28;19948;-35
2021/09/20 04:17:56;;;;;;;;;;;;;;;10.43;76.24;101877.44;5056550;28;19998;-35
2021/09/20 04:20:21;;;;;;;;;;;;;;;10.37;77.13;101876.38;5055577;28;19915;-35
2021/09/20 04:22:47;;;;;;;;;;;;;;;10.35;76.48;101875.78;5055624;28;19912;-35
2021/09/20 04:25:12;;;;;;;;;;;;;;;10.38;75.93;101888.88;5071431;28;19928;-35
2021/09/20 04:27:37;;;;;;;;;;;;;;;10.40;75.88;101889.50;5055671;28;19954;-35
2021/09/20 04:30:04;;;;;;;;;;;;;;;10.41;76.77;101893.03;5054296;28;19913;-35
2021/09/20 04:32:29;;;;;;;;;;;;;;;10.35;76.32;101894.69;5055894;28;20415;-35
2021/09/20 04:34:54;;;;;;;;;;;;;;;10.36;76.24;101892.81;5055163;28;19909;-35
2021/09/20 04:37:20;;;;;;;;;;;;;;;10.35;75.80;101894.69;5055190;28;19915;-35
2021/09/20 04:39:45;;;;;;;;;;;;;;;10.35;76.27;101902.81;5056198;28;19915;-35
2021/09/20 04:42:11;;;;;;;;;;;;;;;10.33;75.58;101904.88;5055641;28;20364;-35
2021/09/20 04:44:36;;;;;;;;;;;;;;;10.32;75.66;101912.16;5055670;28;20359;-35
2021/09/20 04:47:02;;;;;;;;;;;;;;;10.29;76.14;101914.41;5055307;28;20238;-35
2021/09/20 04:49:27;;;;;;;;;;;;;;;10.30;75.59;101910.69;5055222;28;19948;-35
2021/09/20 04:51:52;;;;;;;;;;;;;;;10.29;76.41;101917.13;5055615;28;20007;-34
2021/09/20 04:54:17;;;;;;;;;;;;;;;10.22;76.01;101918.94;5054998;28;19964;-35
2021/09/20 04:56:42;;;;;;;;;;;;;;;10.17;76.60;101921.41;5055356;28;19916;-35
2021/09/20 04:59:08;;;;;;;;;;;;;;;10.12;76.33;101922.03;5054770;28;19908;-35
2021/09/20 05:01:33;;;;;;;;;;;;;;;10.12;76.17;101922.03;5055429;28;19909;-35
2021/09/20 05:03:58;;;;;;;;;;;;;;;10.15;75.78;101928.88;5055413;28;19994;-35
2021/09/20 05:06:23;;;;;;;;;;;;;;;10.17;76.21;101927.66;5054523;28;19908;-35
2021/09/20 05:08:49;;;;;;;;;;;;;;;10.20;76.20;101932.69;5054428;28;19920;-35
2021/09/20 05:11:14;;;;;;;;;;;;;;;10.16;75.46;101930.56;5055329;28;19909;-35
2021/09/20 05:13:39;;;;;;;;;;;;;;;10.15;76.51;101932.44;5054792;28;19919;-35
2021/09/20 05:16:04;;;;;;;;;;;;;;;10.13;75.89;101926.38;5055117;28;19909;-35
2021/09/20 05:18:29;;;;;;;;;;;;;;;10.14;75.81;101927.22;5054540;28;20267;-35
2021/09/20 05:20:55;;;;;;;;;;;;;;;10.14;75.76;101927.22;5054525;28;20349;-35
2021/09/20 05:23:20;;;;;;;;;;;;;;;10.13;75.60;101928.25;5054491;28;20264;-35
2021/09/20 05:25:45;;;;;;;;;;;;;;;10.11;76.22;101935.75;5054192;28;19909;-35
2021/09/20 05:28:10;;;;;;;;;;;;;;;10.08;76.00;101939.69;5054429;28;20054;-35
2021/09/20 05:30:36;;;;;;;;;;;;;;;10.05;76.22;101946.34;5054675;28;19909;-35
2021/09/20 05:33:01;;;;;;;;;;;;;;;10.01;75.92;101934.25;5054352;28;19908;-35
2021/09/20 05:35:26;;;;;;;;;;;;;;;10.01;76.01;101939.66;5054782;28;20367;-35
2021/09/20 05:37:52;;;;;;;;;;;;;;;10.03;76.39;101945.69;5054582;28;19909;-35
2021/09/20 05:40:18;;;;;;;;;;;;;;;10.08;75.82;101939.69;5053996;28;20011;-35
2021/09/20 05:42:43;;;;;;;;;;;;;;;10.11;76.14;101951.97;5054211;28;20257;-35
2021/09/20 05:45:10;;;;;;;;;;;;;;;10.15;75.66;101947.81;5054087;28;19912;-35
2021/09/20 05:47:35;;;;;;;;;;;;;;;10.16;76.02;101946.78;5054064;28;19915;-34
2021/09/20 05:50:00;;;;;;;;;;;;;;;10.18;76.35;101950.13;5054632;28;19908;-35
2021/09/20 05:52:25;;;;;;;;;;;;;;;10.25;76.07;101943.75;5054949;28;19912;-35
2021/09/20 05:54:51;;;;;;;;;;;;;;;10.37;76.04;101949.38;5053859;28;19956;-35
2021/09/20 05:57:17;;;;;;;;;;;;;;;10.48;75.80;101959.63;5053993;28;19908;-34
2021/09/20 05:59:42;;;;;;;;;;;;;;;10.42;76.24;101957.72;5053880;28;20246;-35
2021/09/20 06:02:07;;;;;;;;;;;;;;;10.39;76.63;101950.00;5053919;28;20050;-35
2021/09/20 06:04:32;;;;;;;;;;;;;;;10.39;76.02;101955.41;5053574;28;19956;-35
2021/09/20 06:06:58;;;;;;;;;;;;;;;10.41;75.97;101958.78;5053567;28;19916;-35
2021/09/20 06:09:23;;;;;;;;;;;;;;;10.44;75.91;101958.38;5053741;28;20003;-35
2021/09/20 06:11:48;;;;;;;;;;;;;;;10.51;75.64;101961.91;5054471;28;19916;-35
2021/09/20 06:14:14;;;;;;;;;;;;;;;10.57;75.95;101966.50;5052679;28;19909;-35
2021/09/20 06:16:39;;;;;;;;;;;;;;;10.60;76.02;101959.88;5053622;28;20232;-35
2021/09/20 06:19:04;;;;;;;;;;;;;;;10.59;76.04;101958.22;5053555;28;19909;-35
2021/09/20 06:21:29;;;;;;;;;;;;;;;10.61;75.91;101964.25;5054335;28;19908;-40
2021/09/20 06:23:55;;;;;;;;;;;;;;;10.58;76.33;101967.34;5053370;28;19909;-35
2021/09/20 06:26:20;;;;;;;;;;;;;;;10.56;75.79;101961.31;5054354;28;20303;-35
2021/09/20 06:28:45;;;;;;;;;;;;;;;10.53;77.19;101964.41;5053342;28;19908;-35
2021/09/20 06:31:10;;;;;;;;;;;;;;;10.55;76.49;101965.06;5053852;28;19971;-35
2021/09/20 06:33:35;;;;;;;;;;;;;;;10.57;76.77;101969.22;5053707;28;19915;-35
2021/09/20 06:36:01;;;;;;;;;;;;;;;10.55;76.40;101973.19;5053523;28;19908;-35
2021/09/20 06:38:26;;;;;;;;;;;;;;;10.53;76.89;101967.94;5053386;28;19915;-35
2021/09/20 06:40:51;;;;;;;;;;;;;;;10.51;77.13;101964.63;5053118;28;20086;-35
2021/09/20 06:43:17;;;;;;;;;;;;;;;10.51;76.68;101980.84;5052016;28;19912;-35
2021/09/20 06:45:42;;;;;;;;;;;;;;;10.53;76.53;101981.47;5053652;28;19995;-35
2021/09/20 06:48:08;;;;;;;;;;;;;;;10.55;77.49;101975.88;5053340;28;19908;-35
2021/09/20 06:50:33;;;;;;;;;;;;;;;10.57;77.17;101982.75;5053224;28;19919;-35
2021/09/20 06:52:58;;;;;;;;;;;;;;;10.62;76.81;101981.28;5056778;28;19908;-35
2021/09/20 06:55:23;;;;;;;;;;;;;;;10.68;77.25;101989.41;5072816;28;19909;-35
2021/09/20 06:57:50;;;;;;;;;;;;;;;10.73;77.16;101983.41;5057343;28;19908;-35
2021/09/20 07:00:16;;;;;;;;;;;;;;;10.79;76.99;101971.78;5057251;28;20017;-35
2021/09/20 07:02:41;;;;;;;;;;;;;;;10.84;76.67;101977.41;5057829;28;19998;-35
2021/09/20 07:05:07;;;;;;;;;;;;;;;10.93;77.00;101978.03;5057414;28;19913;-35
2021/09/20 07:07:32;;;;;;;;;;;;;;;10.97;76.66;101972.00;5057395;28;20023;-35
2021/09/20 07:09:57;;;;;;;;;;;;;;;11.02;76.72;101972.22;5056834;28;20043;-35
2021/09/20 07:12:22;;;;;;;;;;;;;;;11.03;77.54;101979.31;5057051;28;20426;-35
2021/09/20 07:14:47;;;;;;;;;;;;;;;11.03;77.29;101976.63;5056692;28;19954;-35
2021/09/20 07:17:13;;;;;;;;;;;;;;;11.01;77.38;101972.44;5056784;28;19955;-35
2021/09/20 07:19:38;;;;;;;;;;;;;;;11.09;76.89;101980.38;5056932;28;19908;-35
2021/09/20 07:22:03;;;;;;;;;;;;;;;11.19;77.84;101979.97;5057163;28;19913;-35
2021/09/20 07:24:28;;;;;;;;;;;;;;;11.24;77.14;101986.41;5056568;28;20015;-35
2021/09/20 07:26:54;;;;;;;;;;;;;;;11.23;77.51;101989.34;5056529;28;19955;-35
2021/09/20 07:29:19;;;;;;;;;;;;;;;11.28;77.34;101994.97;5056810;28;20011;-35
2021/09/20 07:31:44;;;;;;;;;;;;;;;11.30;77.58;102001.81;5067046;28;20276;-35
2021/09/20 07:34:09;;;;;;;;;;;;;;;11.34;77.10;101997.66;5076292;28;19908;-35
2021/09/20 07:36:36;;;;;;;;;;;;;;;11.38;77.04;102000.78;5077230;28;20385;-35
2021/09/20 07:39:01;;;;;;;;;;;;;;;11.38;77.05;102000.78;5076588;28;19916;-35
2021/09/20 07:41:26;;;;;;;;;;;;;;;11.40;76.88;102006.81;5077309;28;19912;-35
2021/09/20 07:43:52;;;;;;;;;;;;;;;11.30;77.37;102011.81;5076560;28;20015;-35
2021/09/20 07:46:19;;;;;;;;;;;;;;;11.31;78.05;102013.47;5076424;28;19919;-35
2021/09/20 07:48:45;;;;;;;;;;;;;;;11.43;77.37;102011.00;5076617;28;19908;-35
2021/09/20 07:51:11;;;;;;;;;;;;;;;11.49;77.11;102011.00;5039095;28;1077520;-35
2021/09/20 07:53:36;;;;;;;;;;;;;;;11.59;77.12;102022.25;5076268;28;19912;-35
2021/09/20 07:56:02;;;;;;;;;;;;;;;11.72;77.41;102020.59;5075124;28;19913;-35
2021/09/20 07:58:27;;;;;;;;;;;;;;;11.82;77.02;102026.44;5076179;28;20057;-35
2021/09/20 08:00:52;;;;;;;;;;;;;;;11.90;76.44;102022.66;5076477;28;20345;-35
2021/09/20 08:03:17;;;;;;;;;;;;;;;12.04;76.69;102024.28;5075764;28;20013;-35
2021/09/20 08:05:43;;;;;;;;;;;;;;;12.19;76.04;102035.72;5076302;28;20307;-35
2021/09/20 08:08:08;;;;;;;;;;;;;;;12.34;75.90;102041.72;5076171;28;20271;-35
2021/09/20 08:10:34;;;;;;;;;;;;;;;12.41;74.59;102030.03;5075959;28;20007;-35
2021/09/20 08:13:00;;;;;;;;;;;;;;;12.49;74.34;102029.78;5076162;28;19962;-35
2021/09/20 08:15:25;;;;;;;;;;;;;;;12.55;74.44;102037.91;5075970;28;20349;-35
2021/09/20 08:17:51;;;;;;;;;;;;;;;12.63;72.98;102045.78;5076667;28;20256;-35
2021/09/20 08:20:16;;;;;;;;;;;;;;;12.73;73.21;102039.91;5075552;28;19908;-35
2021/09/20 08:22:41;;;;;;;;;;;;;;;12.85;73.35;102040.06;5075818;28;19908;-35
2021/09/20 08:25:07;;;;;;;;;;;;;;;12.94;72.53;102044.22;5075753;28;19912;-35
2021/09/20 08:27:33;;;;;;;;;;;;;;;12.99;72.20;102049.81;5076027;28;20320;-35
2021/09/20 08:29:58;;;;;;;;;;;;;;;12.95;71.19;102048.59;5076024;28;19948;-35
2021/09/20 08:32:23;;;;;;;;;;;;;;;13.00;71.37;102048.75;5075380;28;19908;-35
2021/09/20 08:34:48;;;;;;;;;;;;;;;13.01;70.16;102053.13;5075599;28;19912;-35
2021/09/20 08:37:14;;;;;;;;;;;;;;;13.06;71.53;102050.59;5075610;28;19915;-35
2021/09/20 08:39:39;;;;;;;;;;;;;;;13.10;71.50;102054.53;5075261;28;19915;-35
2021/09/20 08:42:04;;;;;;;;;;;;;;;13.04;70.71;102058.13;5075211;28;19998;-35
2021/09/20 08:44:30;;;;;;;;;;;;;;;13.18;71.71;102064.34;5075086;28;19926;-36
2021/09/20 08:46:55;;;;;;;;;;;;;;;13.25;70.18;102054.28;5075026;28;19998;-35
2021/09/20 08:49:22;;;;;;;;;;;;;;;13.32;71.25;102067.78;5075019;28;19909;-35
2021/09/20 08:51:49;;;;;;;;;;;;;;;13.42;71.00;102068.16;5075308;28;20347;-35
2021/09/20 08:54:15;;;;;;;;;;;;;;;13.44;69.88;102068.78;5075682;28;20217;-35
2021/09/20 08:56:40;;;;;;;;;;;;;;;13.54;69.17;102081.88;5075102;28;19915;-35
2021/09/20 08:59:05;;;;;;;;;;;;;;;13.53;69.23;102066.63;5075364;28;19915;-35
2021/09/20 09:01:31;;;;;;;;;;;;;;;13.59;69.60;102074.72;5075915;28;19909;-35
2021/09/20 09:04:15;;;;;;;;;;;;;;;13.62;67.49;102076.16;5074974;28;19914;-35
2021/09/20 09:06:51;;;;;;;;;;;;;;;13.75;68.51;102078.75;5074738;28;20357;-36
2021/09/20 09:09:30;;;;;;;;;;;;;;;13.92;69.08;102076.31;5075109;28;20340;-35
2021/09/20 09:12:12;;;;;;;;;;;;;;;14.03;67.99;102080.19;5075108;28;19909;-35
2021/09/20 09:14:39;;;;;;;;;;;;;;;14.09;67.43;102085.56;5074188;28;19988;-35
2021/09/20 09:17:09;;;;;;;;;;;;;;;14.12;66.58;102089.75;5075612;28;19999;-35
2021/09/20 09:19:40;;;;;;;;;;;;;;;14.16;67.11;102089.06;5074725;28;20003;-35
2021/09/20 09:22:05;;;;;;;;;;;;;;;14.31;65.09;102090.59;5075274;28;19962;-35
2021/09/20 09:24:30;;;;;;;;;;;;;;;14.31;64.23;102090.59;5074692;28;19912;-35
2021/09/20 09:27:02;;;;;;;;;;;;;;;14.51;65.70;102093.94;5074346;28;20049;-35
2021/09/20 09:29:31;;;;;;;;;;;;;;;14.55;63.32;102089.72;5074335;28;19928;-35
2021/09/20 09:31:57;;;;;;;;;;;;;;;14.54;64.41;102090.78;5074578;28;19953;-35
2021/09/20 09:34:24;;;;;;;;;;;;;;;14.61;63.38;102088.81;5074433;28;19909;-35
2021/09/20 09:36:50;;;;;;;;;;;;;;;14.69;61.83;102084.97;5074325;28;20346;-35
2021/09/20 09:39:25;;;;;;;;;;;;;;;14.77;61.56;102089.25;5074366;28;19954;-35
2021/09/20 09:41:51;;;;;;;;;;;;;;;14.81;61.60;102096.72;5075148;28;19908;-35
2021/09/20 09:44:16;;;;;;;;;;;;;;;14.84;61.61;102090.84;5074767;28;20063;-35
2021/09/20 09:46:43;;;;;;;;;;;;;;;14.91;61.00;102097.03;5074002;28;20007;-35
2021/09/20 09:49:15;;;;;;;;;;;;;;;15.01;62.10;102088.28;5074207;28;19913;-35
2021/09/20 09:51:57;;;;;;;;;;;;;;;15.22;62.87;102102.47;5074652;28;19935;-35
2021/09/20 09:54:29;;;;;;;;;;;;;;;15.41;62.49;102099.44;5073903;28;20340;-35
2021/09/20 09:57:13;;;;;;;;;;;;;;;15.30;59.87;102099.44;5074151;28;19961;-35
2021/09/20 09:59:39;;;;;;;;;;;;;;;15.42;60.13;102086.66;5073726;28;19943;-35
2021/09/20 10:02:16;;;;;;;;;;;;;;;15.43;61.57;102096.53;5074830;28;20000;-35
2021/09/20 10:04:51;;;;;;;;;;;;;;;15.56;60.93;102092.75;5073961;28;19912;-35
2021/09/20 10:07:30;;;;;;;;;;;;;;;15.61;59.70;102104.59;5074312;28;19908;-35
2021/09/20 10:09:56;;;;;;;;;;;;;;;15.46;59.06;102098.75;5073895;28;19915;-35
2021/09/20 10:12:23;;;;;;;;;;;;;;;15.43;59.20;102105.53;5074173;28;19908;-35
2021/09/20 10:14:49;;;;;;;;;;;;;;;15.46;59.75;102096.03;5073869;28;19915;-35
2021/09/20 10:17:18;;;;;;;;;;;;;;;15.40;58.79;102102.41;5074430;28;20307;-35
2021/09/20 10:19:43;;;;;;;;;;;;;;;15.47;60.05;102095.00;5073774;28;19951;-35
2021/09/20 10:22:09;;;;;;;;;;;;;;;15.58;60.18;102094.19;5074452;28;20005;-35
2021/09/20 10:24:34;;;;;;;;;;;;;;;15.55;58.66;102096.53;5073780;28;20006;-35
2021/09/20 10:26:59;;;;;;;;;;;;;;;15.58;58.46;102096.91;5073663;28;19908;-36
2021/09/20 10:29:24;;;;;;;;;;;;;;;15.65;59.89;102086.75;5073648;28;19908;-35
2021/09/20 10:31:51;;;;;;;;;;;;;;;15.77;58.69;102085.94;5073769;28;19915;-36
2021/09/20 10:34:24;;;;;;;;;;;;;;;15.62;58.45;102091.81;5073254;28;19951;-35
2021/09/20 10:36:54;;;;;;;;;;;;;;;15.57;57.66;102099.88;5074419;28;19999;-35
2021/09/20 10:39:42;;;;;;;;;;;;;;;15.50;58.92;102086.31;5073314;28;20426;-35
2021/09/20 10:42:08;;;;;;;;;;;;;;;15.70;59.64;102089.59;5074029;28;19915;-35
2021/09/20 10:44:40;;;;;;;;;;;;;;;15.98;59.46;102090.00;5072133;28;19909;-35
2021/09/20 10:47:13;;;;;;;;;;;;;;;16.27;60.20;102091.75;5074218;28;20301;-35
2021/09/20 10:49:47;;;;;;;;;;;;;;;16.45;58.13;102093.53;5074037;28;19909;-35
2021/09/20 10:52:12;;;;;;;;;;;;;;;16.36;56.87;102089.50;5074014;28;19913;-36
2021/09/20 10:54:37;;;;;;;;;;;;;;;16.37;58.21;102080.22;5073605;28;20006;-35
2021/09/20 10:57:10;;;;;;;;;;;;;;;16.30;56.88;102088.56;5073555;28;19912;-36
2021/09/20 10:59:35;;;;;;;;;;;;;;;16.27;56.53;102091.75;5073935;28;19954;-35
2021/09/20 11:02:04;;;;;;;;;;;;;;;16.40;59.10;102090.69;5073908;28;19916;-35
2021/09/20 11:04:31;;;;;;;;;;;;;;;16.50;57.15;102093.63;5073582;28;19953;-35
2021/09/20 11:07:03;;;;;;;;;;;;;;;16.39;58.41;102091.72;5073985;28;19908;-36
2021/09/20 11:09:28;;;;;;;;;;;;;;;16.33;58.41;102089.97;5073508;28;20265;-35
2021/09/20 11:12:01;;;;;;;;;;;;;;;16.38;58.27;102096.38;5073357;28;19908;-35
2021/09/20 11:14:45;;;;;;;;;;;;;;;16.66;58.78;102092.88;5073540;28;19908;-35
2021/09/20 11:17:22;;;;;;;;;;;;;;;16.90;57.26;102096.41;5073775;28;19908;-35
2021/09/20 11:19:48;;;;;;;;;;;;;;;17.13;57.21;102092.75;5073151;28;19919;-36
2021/09/20 11:22:16;;;;;;;;;;;;;;;17.34;54.40;102087.66;5074026;28;19908;-35
2021/09/20 11:25:04;;;;;;;;;;;;;;;17.41;53.91;102091.06;5073465;28;19920;-35
2021/09/20 11:27:29;;;;;;;;;;;;;;;17.65;56.07;102095.31;5073153;28;19954;-35
2021/09/20 11:29:57;;;;;;;;;;;;;;;17.85;54.25;102094.84;5072702;28;19961;-36
2021/09/20 11:32:23;;;;;;;;;;;;;;;17.95;50.56;102100.47;5072994;28;20236;-36
2021/09/20 11:34:52;;;;;;;;;;;;;;;18.03;51.82;102099.22;5073238;28;19916;-36
2021/09/20 11:37:19;;;;;;;;;;;;;;;17.60;50.69;102097.13;5073982;28;19961;-35
2021/09/20 11:39:46;;;;;;;;;;;;;;;17.50;51.86;102103.25;5076395;28;20461;-36
2021/09/20 11:42:12;;;;;;;;;;;;;;;17.62;52.76;102101.28;5076611;28;19908;-35
2021/09/20 11:44:45;;;;;;;;;;;;;;;17.82;52.96;102105.47;5076747;28;19977;-35
2021/09/20 11:47:10;;;;;;;;;;;;;;;17.93;53.27;102107.28;5076808;28;19915;-35
2021/09/20 11:49:35;;;;;;;;;;;;;;;17.95;51.44;102110.59;5076135;28;19908;-35
2021/09/20 11:52:01;;;;;;;;;;;;;;;18.04;52.36;102100.88;5076945;28;19920;-35
2021/09/20 11:54:33;;;;;;;;;;;;;;;18.08;48.57;102115.72;5076047;28;19992;-35
2021/09/20 11:57:15;;;;;;;;;;;;;;;17.71;50.79;102124.44;5077139;28;19931;-36
2021/09/20 11:59:40;;;;;;;;;;;;;;;17.24;49.67;102121.94;5074940;28;19952;-35
2021/09/20 12:02:06;;;;;;;;;;;;;;;17.08;51.96;102125.47;5076541;28;19947;-35
2021/09/20 12:04:48;;;;;;;;;;;;;;;16.99;51.49;102124.19;5076185;28;19915;-35
2021/09/20 12:07:25;;;;;;;;;;;;;;;16.79;52.38;102121.88;5076216;28;19915;-36
2021/09/20 12:09:50;;;;;;;;;;;;;;;16.88;52.28;102116.81;5076978;28;20006;-36
2021/09/20 12:12:15;;;;;;;;;;;;;;;17.04;53.27;102118.81;5076662;28;19940;-35
2021/09/20 12:14:52;;;;;;;;;;;;;;;17.08;49.09;102132.78;5074941;28;20408;-36
2021/09/20 12:17:17;;;;;;;;;;;;;;;17.20;50.48;102126.22;5075737;28;20368;-35
2021/09/20 12:19:49;;;;;;;;;;;;;;;17.29;50.73;102126.66;5076275;28;19915;-35
2021/09/20 12:22:15;;;;;;;;;;;;;;;17.39;51.28;102126.03;5076034;28;19908;-35
2021/09/20 12:24:40;;;;;;;;;;;;;;;17.51;50.63;102133.09;5076267;28;20337;-35
2021/09/20 12:27:06;;;;;;;;;;;;;;;17.67;49.45;102128.72;5076423;28;19908;-36
2021/09/20 12:29:31;;;;;;;;;;;;;;;17.80;47.46;102134.97;5076278;28;19908;-36
2021/09/20 12:31:56;;;;;;;;;;;;;;;17.87;49.03;102130.19;5076010;28;20363;-35